Flight Track Log - Related Links

Times and Time Zones

All times are in EDT time to prevent confusion due to time zone crossing. See the EJA941 flight status page for this flight to view local times or setup timezone preferences in your user account.

Time Position Orientation Groundspeed Altitude Reporting Facility
EDT Latitude Longitude Course Direction KTS MPH feet Rate Location/Type
Sat 02:16:47 PM 47.5036 -122.2825 147° Southeast 186 214 1,300  Level Seattle Center
Sat 02:17:57 PM 47.4497 -122.2311 147° Southeast 214 246 4,600 2,885 Climbing Seattle Center
Sat 02:18:58 PM 47.4406 -122.1200 97° East 273 314 7,600 2,557 Climbing Seattle Center
Sat 02:19:59 PM 47.4411 -122.0067 90° East 277 319 9,800 1,721 Climbing Seattle Center
Sat 02:21:00 PM 47.4361 -121.8792 93° East 310 357 11,100 1,131 Climbing Seattle Center
Sat 02:22:01 PM 47.4294 -121.7347 94° East 352 405 12,100 1,131 Climbing Seattle Center
Sat 02:23:02 PM 47.4264 -121.5689 91° East 377 434 13,400 1,512 Climbing Seattle Center
Sat 02:24:04 PM 47.4161 -121.4142 96° East 379 436 15,200 1,805 Climbing Seattle Center
Sat 02:25:05 PM 47.4056 -121.2628 96° East 372 428 17,100 1,770 Climbing Seattle Center
Sat 02:26:06 PM 47.3950 -121.1150 96° East 369 425 18,800 1,721 Climbing Seattle Center
Sat 02:27:07 PM 47.3847 -120.9653 96° East 371 427 20,600 1,721 Climbing Seattle Center
Sat 02:28:08 PM 47.3739 -120.8181 96° East 373 429 22,300 1,574 Climbing Seattle Center
Sat 02:29:09 PM 47.3614 -120.6611 97° East 383 441 23,800 1,623 Climbing Seattle Center
Sat 02:30:10 PM 47.3486 -120.5011 97° East 392 451 25,600 1,623 Climbing Seattle Center
Sat 02:31:11 PM 47.3372 -120.3381 96° East 399 459 27,100 1,574 Climbing Seattle Center
Sat 02:32:12 PM 47.3231 -120.1392 96° East 405 466 28,800 1,512 Climbing Seattle Center
Sat 02:33:14 PM 47.3083 -119.9681 97° East 418 481 30,200 1,366 Climbing Seattle Center
Sat 02:34:15 PM 47.2947 -119.7939 97° East 428 493 31,600 1,328 Climbing Seattle Center
Sat 02:35:16 PM 47.2803 -119.6167 97° East 436 502 32,900 1,131 Climbing Seattle Center
Sat 02:36:17 PM 47.2647 -119.4353 97° East 448 516 33,900 984 Climbing Seattle Center
Sat 02:37:18 PM 47.2483 -119.2483 97° East 460 529 34,900 541 Climbing Seattle Center
Sat 02:38:19 PM 47.2322 -119.0569 97° East 472 543 35,000 98 Climbing Seattle Center
Sat 02:39:20 PM 47.2150 -118.8558 97° East 494 568 35,100 590 Climbing Seattle Center
Sat 02:40:21 PM 47.1958 -118.6575 98° East 493 567 36,200 1,131 Climbing Seattle Center
Sat 02:41:22 PM 47.1781 -118.4625 98° East 484 557 37,400 1,268 Climbing Seattle Center
Sat 02:42:24 PM 47.1550 -118.2297 98° East 483 556 38,800 780 Climbing Seattle Center
Sat 02:43:25 PM 47.1361 -118.0383 98° East 479 551 39,000 98 Climbing Seattle Center
Sat 02:44:26 PM 47.1175 -117.8411 98° East 488 562 39,000  Level Seattle Center
Sat 02:45:27 PM 47.0975 -117.6425 98° East 494 568 39,000 197 Level Seattle Center
Sat 02:46:28 PM 47.0778 -117.4442 98° East 497 572 39,400 639 Climbing Seattle Center
Sat 02:47:29 PM 47.0567 -117.2517 99° East 487 560 40,300 780 Climbing Seattle Center
Sat 02:48:31 PM 47.0378 -117.0614 98° East 478 550 41,000 341 Climbing Seattle Center
Sat 02:49:32 PM 47.0172 -116.8669 99° East 484 557 41,000  Level Seattle Center
Sat 02:50:33 PM 46.9917 -116.6328 99° East 489 563 41,000  Level Seattle Center
Sat 02:51:34 PM 46.9706 -116.4356 99° East 493 567 41,000  Level Seattle Center
Sat 02:52:35 PM 46.9478 -116.2389 100° East 493 567 41,000  Level Seattle Center
Sat 02:53:36 PM 46.9250 -116.0419 100° East 493 567 41,000  Level Seattle Center
Sat 02:54:37 PM 46.9017 -115.8453 100° East 494 568 41,000  Level Seattle Center
Sat 02:55:39 PM 46.8783 -115.6464 100° East 497 572 41,000  Level Seattle Center
Sat 02:56:40 PM 46.8542 -115.4478 100° East 498 573 41,000  Level Seattle Center
Sat 02:57:41 PM 46.8292 -115.2403 100° East 497 572 41,000  Level Seattle Center
Sat 02:58:42 PM 46.8053 -115.0431 100° East 498 573 41,000  Level Seattle Center
Sat 02:59:43 PM 46.7800 -114.8433 100° East 502 578 41,000 197 Level Seattle Center
Sat 03:00:44 PM 46.7547 -114.6458 101° East 500 575 41,400 683 Climbing Seattle Center
Sat 03:01:46 PM 46.7292 -114.4517 101° East 494 568 42,400 780 Climbing Seattle Center
Sat 03:02:47 PM 46.6997 -114.2222 101° East 483 556 43,000 295 Climbing Seattle Center
Sat 03:03:48 PM 46.6736 -114.0281 101° East 490 564 43,000  Level Seattle Center
Sat 03:04:18 PM 46.6628 -113.9494 101° East 495 570 43,000  Level Salt Lake Center
Sat 03:05:20 PM 46.6369 -113.7519 101° East 500 575 43,000  Level Salt Lake Center
Sat 03:06:22 PM 46.6033 -113.5153 102° East 501 577 43,000  Level Salt Lake Center
Sat 03:07:24 PM 46.5753 -113.3147 101° East 507 583 43,000  Level Salt Lake Center
Sat 03:08:26 PM 46.5500 -113.1336 101° East 506 582 43,000  Level Salt Lake Center
Sat 03:09:28 PM 46.5161 -112.8939 102° East 508 585 43,000  Level Salt Lake Center
Sat 03:10:30 PM 46.4869 -112.6975 102° East 504 580 43,000  Level Salt Lake Center
Sat 03:11:32 PM 46.4569 -112.4975 102° East 508 585 43,000  Level Salt Lake Center
Sat 03:12:34 PM 46.4383 -112.2956 98° East 507 583 43,000  Level Salt Lake Center
Sat 03:13:36 PM 46.4256 -112.0625 94° East 505 581 43,000  Level Salt Lake Center
Sat 03:14:38 PM 46.4136 -111.8575 95° East 508 585 43,000  Level Salt Lake Center
Sat 03:15:40 PM 46.4017 -111.6519 95° East 510 587 43,000  Level Salt Lake Center
Sat 03:16:42 PM 46.3897 -111.4458 95° East 511 588 43,000  Level Salt Lake Center
Sat 03:17:44 PM 46.3775 -111.2372 95° East 515 593 43,000  Level Salt Lake Center
Sat 03:18:46 PM 46.3631 -111.0303 96° East 514 592 43,000  Level Salt Lake Center
Sat 03:19:48 PM 46.3489 -110.8283 96° East 515 593 43,000 144 Level Salt Lake Center
Sat 03:20:51 PM 46.3317 -110.5789 96° East 509 586 43,300 528 Climbing Salt Lake Center
Sat 03:21:53 PM 46.3181 -110.3839 96° East 509 586 44,100 629 Climbing Salt Lake Center
Sat 03:22:55 PM 46.3036 -110.1914 96° East 495 570 44,600 435 Climbing Salt Lake Center
Sat 03:23:57 PM 46.2900 -109.9997 96° East 486 559 45,000 194 Climbing Salt Lake Center
Sat 03:24:59 PM 46.2733 -109.7728 96° East 483 556 45,000  Level Salt Lake Center
Sat 03:26:01 PM 46.2589 -109.5800 96° East 485 558 45,000  Level Salt Lake Center
Sat 03:27:03 PM 46.2425 -109.3706 96° East 490 564 45,000  Level Salt Lake Center
Sat 03:28:05 PM 46.2261 -109.1758 97° East 495 570 45,000  Level Salt Lake Center
Sat 03:29:07 PM 46.2089 -108.9633 97° East 495 570 45,000  Level Salt Lake Center
Sat 03:30:09 PM 46.1922 -108.7653 97° East 503 579 45,000  Level Salt Lake Center
Sat 03:31:11 PM 46.1739 -108.5492 97° East 506 582 45,000  Level Salt Lake Center
Sat 03:32:13 PM 46.1556 -108.3500 97° East 506 582 45,000  Level Salt Lake Center
Sat 03:33:15 PM 46.1375 -108.1511 97° East 506 582 45,000  Level Salt Lake Center
Sat 03:34:17 PM 46.1169 -107.9372 98° East 501 577 45,000  Level Salt Lake Center
Sat 03:35:19 PM 46.0986 -107.7386 98° East 505 581 45,000  Level Salt Lake Center
Sat 03:36:21 PM 46.0775 -107.5242 98° East 504 580 45,000  Level Salt Lake Center
Sat 03:37:23 PM 46.0583 -107.3256 98° East 503 579 45,000  Level Salt Lake Center
Sat 03:38:25 PM 46.0406 -107.1431 98° East 507 583 45,000  Level Salt Lake Center
Sat 03:39:27 PM 46.0150 -106.9042 99° East 510 587 45,000  Level Salt Lake Center
Sat 03:40:29 PM 45.9919 -106.7008 99° East 513 590 45,000  Level Salt Lake Center
Sat 03:41:31 PM 45.9697 -106.5006 99° East 514 592 45,000  Level Salt Lake Center
Sat 03:42:33 PM 45.9497 -106.3017 98° East 511 588 45,000  Level Salt Lake Center
Sat 03:43:35 PM 45.9289 -106.1033 99° East 509 586 45,000  Level Salt Lake Center
Sat 03:44:37 PM 45.9019 -105.8633 99° East 508 585 45,000  Level Salt Lake Center
Sat 03:45:39 PM 45.8811 -105.6642 98° East 508 585 45,000  Level Salt Lake Center
Sat 03:46:41 PM 45.8589 -105.4656 99° East 508 585 45,000  Level Salt Lake Center
Sat 03:47:44 PM 45.8369 -105.2692 99° East 506 582 45,000  Level Salt Lake Center
Sat 03:48:47 PM 45.8136 -105.0689 99° East 509 586 45,000  Level Salt Lake Center
Sat 03:49:48 PM 45.7883 -104.8619 100° East 515 593 45,000  Level Salt Lake Center
Sat 03:50:50 PM 45.7589 -104.6261 100° East 515 593 45,000  Level Salt Lake Center
Sat 03:51:52 PM 45.7336 -104.4214 100° East 520 598 45,000  Level Salt Lake Center
Sat 03:52:55 PM 45.7078 -104.2158 100° East 524 603 45,000  Level Salt Lake Center
Sat 03:53:56 PM 45.6814 -104.0136 101° East 524 603 45,000  Level Salt Lake Center
Sat 03:54:58 PM 45.6561 -103.8108 100° East 523 602 45,000  Level Salt Lake Center
Sat 03:56:00 PM 45.6233 -103.5675 101° East 523 602 45,000  Level Salt Lake Center
Sat 03:57:02 PM 45.5958 -103.3658 101° East 521 600 45,000  Level Salt Lake Center
Sat 03:58:04 PM 45.5692 -103.1647 101° East 519 597 45,000  Level Salt Lake Center
Sat 03:59:06 PM 45.5411 -102.9636 101° East 519 597 45,000  Level Salt Lake Center
Sat 04:00:08 PM 45.5131 -102.7617 101° East 521 600 45,000  Level Salt Lake Center
Sat 04:01:10 PM 45.4839 -102.5603 102° East 522 601 45,000  Level Salt Lake Center
Sat 04:02:12 PM 45.4483 -102.3183 102° East 521 600 45,000  Level Salt Lake Center
Sat 04:03:14 PM 45.4192 -102.1153 101° East 524 603 45,000  Level Salt Lake Center
Sat 04:04:16 PM 45.3903 -101.9114 101° East 526 605 45,000  Level Salt Lake Center
Sat 04:05:40 PM 45.3458 -101.6269 102° East 526 605 45,000  Level Minneapolis Center
Sat 04:06:42 PM 45.3142 -101.4242 102° East 526 605 45,000  Level Minneapolis Center
Sat 04:07:43 PM 45.2819 -101.2214 103° East 527 606 45,000  Level Minneapolis Center
Sat 04:08:45 PM 45.2528 -101.0161 101° East 529 609 45,000  Level Minneapolis Center
Sat 04:09:47 PM 45.2203 -100.8131 103° East 529 609 45,000  Level Minneapolis Center
Sat 04:10:49 PM 45.1811 -100.5681 103° East 531 611 45,000  Level Minneapolis Center
Sat 04:11:50 PM 45.1478 -100.3661 103° East 529 609 45,000  Level Minneapolis Center
Sat 04:12:52 PM 45.1133 -100.1636 103° East 528 608 45,000  Level Minneapolis Center
Sat 04:13:54 PM 45.0769 -99.9603 104° East 535 616 45,000  Level Minneapolis Center
Sat 04:14:56 PM 45.0406 -99.7308 103° East 539 620 45,000  Level Minneapolis Center
Sat 04:15:57 PM 45.0056 -99.5283 104° East 534 615 45,000  Level Minneapolis Center
Sat 04:16:59 PM 44.9711 -99.3256 103° East 532 612 45,000  Level Minneapolis Center
Sat 04:18:01 PM 44.9358 -99.1242 104° East 530 610 45,000  Level Minneapolis Center
Sat 04:19:03 PM 44.8992 -98.9236 104° East 529 609 45,000  Level Minneapolis Center
Sat 04:20:05 PM 44.8636 -98.7203 104° East 533 613 45,000  Level Minneapolis Center
Sat 04:21:07 PM 44.8275 -98.5194 104° East 531 611 45,000  Level Minneapolis Center
Sat 04:22:08 PM 44.7872 -98.3019 105° East 533 613 45,000  Level Minneapolis Center
Sat 04:23:10 PM 44.7497 -98.1008 105° East 532 612 45,000  Level Minneapolis Center
Sat 04:24:12 PM 44.7053 -97.8597 104° East 531 611 45,000  Level Minneapolis Center
Sat 04:25:14 PM 44.6672 -97.6603 105° East 530 610 45,000  Level Minneapolis Center
Sat 04:26:16 PM 44.6281 -97.4611 105° East 531 611 45,000  Level Minneapolis Center
Sat 04:27:18 PM 44.5897 -97.2608 105° East 533 613 45,000  Level Minneapolis Center
Sat 04:28:20 PM 44.5500 -97.0611 106° East 533 613 45,000  Level Minneapolis Center
Sat 04:29:22 PM 44.5106 -96.8611 105° East 533 613 45,000  Level Minneapolis Center
Sat 04:30:24 PM 44.4628 -96.6214 106° East 533 613 45,000  Level Minneapolis Center
Sat 04:31:26 PM 44.4228 -96.4192 105° East 537 618 45,000  Level Minneapolis Center
Sat 04:32:28 PM 44.3822 -96.2153 105° East 538 619 45,000  Level Minneapolis Center
Sat 04:33:30 PM 44.3389 -96.0083 106° East 540 621 45,000  Level Minneapolis Center
Sat 04:34:32 PM 44.2969 -95.8050 106° East 541 623 45,000  Level Minneapolis Center
Sat 04:35:34 PM 44.2550 -95.6039 106° East 538 619 45,000  Level Minneapolis Center
Sat 04:36:36 PM 44.2106 -95.4006 107° East 547 629 45,000  Level Minneapolis Center
Sat 04:37:38 PM 44.1669 -95.1989 107° East 546 628 45,000  Level Minneapolis Center
Sat 04:38:41 PM 44.1225 -94.9978 107° East 545 627 45,000  Level Minneapolis Center
Sat 04:39:43 PM 44.0694 -94.7553 107° East 547 629 45,000  Level Minneapolis Center
Sat 04:40:45 PM 44.0261 -94.5547 107° East 545 627 45,000  Level Minneapolis Center
Sat 04:41:47 PM 43.9822 -94.3542 107° East 544 626 45,000  Level Minneapolis Center
Sat 04:42:49 PM 43.9322 -94.1408 108° East 551 634 45,000  Level Minneapolis Center
Sat 04:43:51 PM 43.8864 -93.9406 108° East 550 633 45,000  Level Minneapolis Center
Sat 04:44:53 PM 43.8408 -93.7397 107° East 549 632 45,000  Level Minneapolis Center
Sat 04:45:55 PM 43.7947 -93.5386 108° East 551 634 45,000  Level Minneapolis Center
Sat 04:46:57 PM 43.7386 -93.3000 108° East 549 632 45,000  Level Minneapolis Center
Sat 04:47:59 PM 43.6967 -93.1247 108° East 553 636 45,000  Level Minneapolis Center
Sat 04:49:01 PM 43.6400 -92.8842 108° East 554 638 45,000  Level Minneapolis Center
Sat 04:50:03 PM 43.5919 -92.6853 108° East 552 635 45,000  Level Minneapolis Center
Sat 04:51:05 PM 43.5431 -92.4856 109° East 553 636 45,000  Level Minneapolis Center
Sat 04:52:07 PM 43.4942 -92.2844 108° East 557 641 45,000  Level Minneapolis Center
Sat 04:53:09 PM 43.4450 -92.0861 109° East 553 636 45,000  Level Minneapolis Center
Sat 04:54:11 PM 43.3867 -91.8447 108° East 555 639 45,000  Level Minneapolis Center
Sat 04:55:13 PM 43.3367 -91.6444 109° East 555 639 45,000  Level Minneapolis Center
Sat 04:56:15 PM 43.2964 -91.4856 109° East 554 638 45,000  Level Minneapolis Center
Sat 04:56:48 PM 43.2547 -91.3283 110° East 554 638 45,000  Level Chicago Center
Sat 04:57:50 PM 43.2039 -91.1297 109° East 553 636 45,000  Level Chicago Center
Sat 04:58:52 PM 43.1525 -90.9306 109° East 555 639 45,000  Level Chicago Center
Sat 04:59:54 PM 43.1000 -90.7328 110° East 555 639 45,000  Level Chicago Center
Sat 05:00:56 PM 43.0475 -90.5344 110° East 559 643 45,000  Level Chicago Center
Sat 05:01:58 PM 42.9953 -90.3383 110° East 556 640 45,000  Level Chicago Center
Sat 05:03:00 PM 42.9322 -90.1036 110° East 555 639 45,000  Level Chicago Center
Sat 05:04:01 PM 42.8786 -89.9086 111° Southeast 555 639 45,000  Level Chicago Center
Sat 05:05:03 PM 42.8286 -89.7231 110° East 557 641 45,000  Level Chicago Center
Sat 05:06:05 PM 42.7653 -89.4928 110° East 558 642 45,000  Level Chicago Center
Sat 05:07:07 PM 42.7097 -89.2961 111° Southeast 559 643 45,000  Level Chicago Center
Sat 05:08:09 PM 42.6550 -89.0997 111° Southeast 558 642 45,000  Level Chicago Center
Sat 05:09:11 PM 42.6006 -88.9014 110° East 561 646 45,000  Level Chicago Center
Sat 05:10:13 PM 42.5442 -88.7058 111° Southeast 559 643 45,000  Level Chicago Center
Sat 05:11:15 PM 42.4792 -88.4772 111° Southeast 560 644 45,000  Level Chicago Center
Sat 05:12:17 PM 42.4225 -88.2797 111° Southeast 562 647 45,000  Level Chicago Center
Sat 05:13:19 PM 42.3656 -88.0833 111° Southeast 563 648 45,000  Level Chicago Center
Sat 05:14:21 PM 42.3100 -87.8939 112° Southeast 559 643 45,000  Level Chicago Center
Sat 05:15:22 PM 42.2517 -87.6972 112° Southeast 564 649 45,000  Level Chicago Center
Sat 05:16:24 PM 42.1817 -87.4656 112° Southeast 559 643 45,000  Level Chicago Center
Sat 05:17:26 PM 42.1231 -87.2714 112° Southeast 560 644 45,000  Level Chicago Center
Sat 05:18:28 PM 42.0656 -87.0794 112° Southeast 556 640 45,000  Level Chicago Center
Sat 05:19:30 PM 42.0056 -86.8856 113° Southeast 561 646 45,000  Level Chicago Center
Sat 05:20:32 PM 41.9467 -86.6942 112° Southeast 557 641 45,000  Level Chicago Center
Sat 05:21:34 PM 41.8883 -86.5083 113° Southeast 558 642 45,000  Level Chicago Center
Sat 05:22:36 PM 41.8167 -86.2783 113° Southeast 559 643 45,000  Level Chicago Center
Sat 05:23:38 PM 41.7567 -86.0881 113° Southeast 556 640 45,000  Level Chicago Center
Sat 05:24:39 PM 41.6967 -85.8981 113° Southeast 558 642 45,000  Level Chicago Center
Sat 05:25:41 PM 41.6361 -85.7092 113° Southeast 557 641 45,000  Level Chicago Center
Sat 05:26:43 PM 41.5658 -85.4922 113° Southeast 559 643 45,000  Level Chicago Center
Sat 05:27:45 PM 41.5033 -85.3014 114° Southeast 562 647 45,000  Level Chicago Center
Sat 05:28:47 PM 41.4433 -85.1069 112° Southeast 575 662 45,000  Level Chicago Center
Sat 05:29:49 PM 41.3811 -84.9175 114° Southeast 563 648 45,000  Level Chicago Center
Sat 05:30:51 PM 41.3192 -84.7275 113° Southeast 563 648 45,000  Level Chicago Center
Sat 05:31:53 PM 41.2547 -84.5369 114° Southeast 565 650 45,000  Level Chicago Center
Sat 05:32:55 PM 41.1783 -84.3094 114° Southeast 565 650 45,000  Level Chicago Center
Sat 05:33:57 PM 41.1147 -84.1211 114° Southeast 563 648 45,000  Level Chicago Center
Sat 05:34:45 PM 41.0594 -83.9567 114° Southeast 554 638 45,000  Level Cleveland Center
Sat 05:35:45 PM 40.9978 -83.7883 116° Southeast 554 638 45,000  Level Cleveland Center
Sat 05:36:45 PM 40.9342 -83.5983 114° Southeast 554 638 45,000  Level Cleveland Center
Sat 05:37:45 PM 40.8642 -83.3975 115° Southeast 550 633 45,000  Level Cleveland Center
Sat 05:38:46 PM 40.7978 -83.2053 114° Southeast 556 640 45,000 -149 Level Cleveland Center
Sat 05:39:46 PM 40.7331 -83.0247 115° Southeast 550 633 44,700 -1,200 Descending Cleveland Center
Sat 05:41:06 PM 40.6503 -82.7800 114° Southeast 564 649 42,200 -1,563 Descending Indianapolis Center
Sat 05:42:08 PM 40.5808 -82.5886 115° Southeast 573 659 41,000 -585 Descending Indianapolis Center
Sat 05:43:09 PM 40.5094 -82.3925 116° Southeast 589 678 41,000  Level Indianapolis Center
Sat 05:44:11 PM 40.4394 -82.1994 115° Southeast 586 674 41,000  Level Indianapolis Center
Sat 05:45:12 PM 40.3689 -82.0056 115° Southeast 586 674 41,000  Level Indianapolis Center
Sat 05:46:14 PM 40.2983 -81.8103 115° Southeast 589 678 41,000  Level Indianapolis Center
Sat 05:47:16 PM 40.2158 -81.5872 116° Southeast 586 674 41,000  Level Indianapolis Center
Sat 05:48:17 PM 40.1444 -81.3964 116° Southeast 583 671 41,000 -683 Level Indianapolis Center
Sat 05:49:19 PM 40.0736 -81.2061 116° Southeast 581 669 39,600 -1,512 Descending Indianapolis Center
Sat 05:50:20 PM 40.0011 -81.0142 116° Southeast 583 671 37,900 -1,659 Descending Indianapolis Center
Sat 05:51:22 PM 39.9258 -80.8147 116° Southeast 587 676 36,200 -1,670 Descending Indianapolis Center
Sat 05:51:57 PM 39.8836 -80.6967 115° Southeast 574 661 35,200 -758 Descending Cleveland Center
Sat 05:52:57 PM 39.8108 -80.5047 116° Southeast 574 661 35,000 -79 Descending Cleveland Center
Sat 05:54:28 PM 39.7222 -80.2347 113° Southeast 580 667 35,000 -235 Level Washington Center
Sat 05:55:30 PM 39.6608 -80.0367 112° Southeast 580 667 34,400 -1,770 Descending Washington Center
Sat 05:56:30 PM 39.5992 -79.8442 113° Southeast 586 674 31,400 -3,102 Descending Washington Center
Sat 05:57:28 PM 39.5389 -79.6522 112° Southeast 586 674 28,300 -2,237 Descending Washington Center
Sat 05:58:28 PM 39.4889 -79.4694 109° East 566 651 27,000 -1,190 Descending Washington Center
Sat 05:59:29 PM 39.4569 -79.2900 103° East 535 616 25,900 -1,289 Descending Washington Center
Sat 06:00:29 PM 39.4222 -79.1244 105° East 502 578 24,400 -1,835 Descending Washington Center
Sat 06:01:30 PM 39.3936 -78.9647 103° East 469 540 22,200 -2,213 Descending Washington Center
Sat 06:02:31 PM 39.3664 -78.8131 103° East 444 511 19,900 -2,269 Descending Washington Center
Sat 06:03:29 PM 39.3411 -78.6669 103° East 429 494 17,700 -2,218 Descending Washington Center
Sat 06:04:30 PM 39.3153 -78.5264 103° East 411 473 15,500 -1,983 Descending Washington Center
Sat 06:05:30 PM 39.2914 -78.3939 103° East 396 456 13,700 -1,983 Descending Washington Center
Sat 06:06:28 PM 39.2736 -78.2647 100° East 379 436 11,600 -2,085 Descending Washington Center
Sat 06:07:28 PM 39.2553 -78.1406 101° East 359 413 9,600 -1,686 Descending Washington Center
Sat 06:08:29 PM 39.2389 -78.0328 101° East 329 379 8,200 -1,426 Descending Washington Center
Sat 06:09:30 PM 39.2242 -77.9278 100° East 312 359 6,700 -1,513 Descending Washington Center
Sat 06:10:28 PM 39.2075 -77.8283 102° East 293 337 5,200 -864 Descending Washington Center
Sat 06:11:28 PM 39.1989 -77.7289 96° East 283 326 5,000 -595 Descending Washington Center
Sat 06:12:29 PM 39.1942 -77.6297 93° East 276 318 4,000 -793 Descending Washington Center
Sat 06:13:29 PM 39.1894 -77.5439 94° East 263 303 3,400 -417 Descending Washington Center
Sat 06:14:53 PM 39.1167 -77.4667 141° Southeast 220 253 3,000 -458 Descending Potomac TRACON
Sat 06:15:53 PM 39.0667 -77.4500 165° South 207 238 2,300 -789 Descending Potomac TRACON
Sat 06:16:47 PM 39.0167 -77.4333 165° South 183 211 1,500 -850 Descending Potomac TRACON
Sat 06:17:53 PM 38.9667 -77.4333 180° South 149 171 600 -818 Descending Potomac TRACON
Sat 06:19:00 PM 38.9474 -77.4599 165° South  Level Estimated
Sat 06:26:00 PM 38.9474 -77.4599 165° South  Level Estimated
Sat 06:27:00 PM 38.9474 -77.4599 165° South  Level Estimated
Sat 06:28:00 PM 38.9474 -77.4599 165° South  Level Estimated

Login

Don't have an account? Register now (free) for customized features, flight alerts, and more!